Time;durP1;ratioP1;P1;durP2;ratioP2;P2;SDS_P1;SDS_P2;PMS_P1;PMS_P2;Temp;Humidity;BMP_temperature;BMP_pressure;BME280_temperature;BME280_humidity;BME280_pressure;Samples;Min_cycle;Max_cycle;Signal;HPM_P1;HPM_P2
2022/09/06 00:00:08;;;;;;;;;;;;;;;18.87;100.00;101416.41;5073350;28;20348;-64
2022/09/06 00:02:34;;;;;;;;;;;;;;;18.39;100.00;101420.91;5073494;28;19912;-64
2022/09/06 00:05:00;;;;;;;;;;;;;;;17.98;100.00;101417.19;5073468;28;19920;-64
2022/09/06 00:07:25;;;;;;;;;;;;;;;17.92;100.00;101450.25;5073213;28;19908;-64
2022/09/06 00:09:51;;;;;;;;;;;;;;;17.67;100.00;101488.97;5073510;28;20268;-65
2022/09/06 00:12:16;;;;;;;;;;;;;;;17.17;100.00;101494.09;5073674;28;20014;-64
2022/09/06 00:14:41;;;;;;;;;;;;;;;17.06;100.00;101508.47;5073739;28;20007;-64
2022/09/06 00:17:06;;;;;;;;;;;;;;;17.16;100.00;101535.97;5073068;28;19913;-64
2022/09/06 00:19:32;;;;;;;;;;;;;;;16.95;100.00;101542.47;5073061;28;19913;-64
2022/09/06 00:21:57;;;;;;;;;;;;;;;16.72;100.00;101537.31;5073676;28;19913;-64
2022/09/06 00:24:22;;;;;;;;;;;;;;;16.81;100.00;101563.91;5073151;28;19916;-64
2022/09/06 00:26:47;;;;;;;;;;;;;;;16.80;100.00;101570.16;5073328;28;19916;-64
2022/09/06 00:29:12;;;;;;;;;;;;;;;16.75;100.00;101561.31;5073197;28;19921;-64
2022/09/06 00:31:38;;;;;;;;;;;;;;;16.86;100.00;101550.50;5072996;28;19912;-64
2022/09/06 00:34:03;;;;;;;;;;;;;;;16.85;100.00;101548.75;5065906;28;19963;-64
2022/09/06 00:36:28;;;;;;;;;;;;;;;16.79;100.00;101556.81;5070188;28;19920;-64
2022/09/06 00:38:53;;;;;;;;;;;;;;;16.65;100.00;101548.97;5071871;28;20026;-64
2022/09/06 00:41:19;;;;;;;;;;;;;;;16.62;100.00;101544.53;5072367;28;19912;-64
2022/09/06 00:43:44;;;;;;;;;;;;;;;16.80;100.00;101531.91;5071352;28;19960;-65
2022/09/06 00:46:13;;;;;;;;;;;;;;;17.02;100.00;101525.47;5072911;28;19918;-64
2022/09/06 00:48:40;;;;;;;;;;;;;;;17.19;100.00;101519.91;5073056;28;19942;-64
2022/09/06 00:51:07;;;;;;;;;;;;;;;17.17;100.00;101510.13;5073013;28;19938;-64
2022/09/06 00:53:32;;;;;;;;;;;;;;;17.19;100.00;101517.22;5072581;28;20384;-64
2022/09/06 00:55:58;;;;;;;;;;;;;;;17.18;100.00;101506.56;5073074;28;19912;-64
2022/09/06 00:58:23;;;;;;;;;;;;;;;17.22;100.00;101500.28;5072725;28;19912;-64
2022/09/06 01:00:49;;;;;;;;;;;;;;;17.27;100.00;101502.88;5075273;28;19919;-64
2022/09/06 01:03:14;;;;;;;;;;;;;;;17.30;100.00;101494.81;5077155;28;19966;-64
2022/09/06 01:05:56;;;;;;;;;;;;;;;17.36;100.00;101492.97;5076750;28;19912;-64
2022/09/06 01:08:33;;;;;;;;;;;;;;;17.34;100.00;101481.41;5076948;28;19916;-64
2022/09/06 01:11:01;;;;;;;;;;;;;;;17.38;100.00;101483.13;5073127;28;19913;-64
2022/09/06 01:13:26;;;;;;;;;;;;;;;17.38;100.00;101483.13;5076827;28;20318;-64
2022/09/06 01:15:59;;;;;;;;;;;;;;;17.40;100.00;101478.66;5073003;28;19924;-64
2022/09/06 01:18:30;;;;;;;;;;;;;;;17.43;100.00;101477.75;5074050;28;19912;-64
2022/09/06 01:20:55;;;;;;;;;;;;;;;17.38;100.00;101461.75;5074970;28;19913;-64
2022/09/06 01:23:39;;;;;;;;;;;;;;;17.35;100.00;101448.44;5076501;28;19957;-64
2022/09/06 01:26:07;;;;;;;;;;;;;;;17.34;100.00;101427.97;5076789;28;19912;-64
2022/09/06 01:28:32;;;;;;;;;;;;;;;17.33;100.00;101403.94;5076180;28;20000;-64
2022/09/06 01:31:21;;;;;;;;;;;;;;;17.25;100.00;101383.56;5076308;28;19940;-64
2022/09/06 01:33:49;;;;;;;;;;;;;;;17.20;100.00;101365.88;5073665;28;19912;-64
2022/09/06 01:36:18;;;;;;;;;;;;;;;17.06;100.00;101348.22;5076699;28;20333;-65
2022/09/06 01:38:43;;;;;;;;;;;;;;;16.92;100.00;101334.22;5076299;28;19916;-64
2022/09/06 01:41:09;;;;;;;;;;;;;;;16.84;100.00;101338.75;5076148;28;20007;-64
2022/09/06 01:43:36;;;;;;;;;;;;;;;16.79;100.00;101335.22;5076307;28;20023;-64
2022/09/06 01:46:10;;;;;;;;;;;;;;;16.81;100.00;101331.66;5075959;28;20349;-64
2022/09/06 01:48:50;;;;;;;;;;;;;;;16.74;100.00;101317.50;5076144;28;19920;-64
2022/09/06 01:51:24;;;;;;;;;;;;;;;16.69;100.00;101306.00;5073145;28;19919;-65
2022/09/06 01:54:00;;;;;;;;;;;;;;;16.68;100.00;101290.00;5075907;28;20383;-64
2022/09/06 01:56:31;;;;;;;;;;;;;;;16.64;100.00;101281.16;5076225;28;19920;-65
2022/09/06 01:59:14;;;;;;;;;;;;;;;16.62;100.00;101280.31;5076295;28;19916;-64
2022/09/06 02:01:58;;;;;;;;;;;;;;;16.65;100.00;101272.25;5072612;28;19913;-65
2022/09/06 02:04:28;;;;;;;;;;;;;;;16.67;100.00;101280.22;5074009;28;19916;-64
2022/09/06 02:06:59;;;;;;;;;;;;;;;16.70;100.00;101291.75;5075632;28;20122;-65
2022/09/06 02:09:26;;;;;;;;;;;;;;;16.78;100.00;101362.84;5075573;28;19913;-64
2022/09/06 02:11:57;;;;;;;;;;;;;;;16.57;100.00;101367.53;5076042;28;19912;-64
2022/09/06 02:14:28;;;;;;;;;;;;;;;16.48;100.00;101311.63;5075814;28;19962;-64
2022/09/06 02:16:54;;;;;;;;;;;;;;;16.59;100.00;101335.53;5075324;28;20370;-64
2022/09/06 02:19:23;;;;;;;;;;;;;;;16.57;100.00;101324.84;5075650;28;19912;-64
2022/09/06 02:21:50;;;;;;;;;;;;;;;16.65;100.00;101327.44;5075499;28;19967;-64
2022/09/06 02:24:21;;;;;;;;;;;;;;;16.76;100.00;101325.50;5075660;28;19916;-65
2022/09/06 02:26:47;;;;;;;;;;;;;;;16.87;100.00;101341.38;5075298;28;19913;-64
2022/09/06 02:29:13;;;;;;;;;;;;;;;16.83;100.00;101340.50;5075338;28;20054;-64
2022/09/06 02:31:43;;;;;;;;;;;;;;;16.85;100.00;101333.38;5075276;28;20101;-65
2022/09/06 02:34:12;;;;;;;;;;;;;;;16.87;100.00;101325.34;5071441;28;19919;-64
2022/09/06 02:36:37;;;;;;;;;;;;;;;16.80;100.00;101329.88;5071624;28;20006;-65
2022/09/06 02:39:04;;;;;;;;;;;;;;;16.78;100.00;101320.16;5074957;28;19955;-64
2022/09/06 02:41:29;;;;;;;;;;;;;;;16.76;100.00;101316.59;5074924;28;20403;-65
2022/09/06 02:43:55;;;;;;;;;;;;;;;16.80;100.00;101312.97;5073583;28;20011;-64
2022/09/06 02:46:22;;;;;;;;;;;;;;;16.78;100.00;101320.16;5075184;28;20278;-64
2022/09/06 02:48:47;;;;;;;;;;;;;;;16.78;100.00;101315.69;5075175;28;19919;-64
2022/09/06 02:51:12;;;;;;;;;;;;;;;16.79;100.00;101324.56;5074909;28;19916;-65
2022/09/06 02:53:38;;;;;;;;;;;;;;;16.82;100.00;101316.50;5075066;28;19913;-64
2022/09/06 02:56:03;;;;;;;;;;;;;;;16.85;100.00;101324.50;5075000;28;19912;-64
2022/09/06 02:58:29;;;;;;;;;;;;;;;16.89;100.00;101329.78;5074972;28;19912;-64
2022/09/06 03:00:54;;;;;;;;;;;;;;;16.92;100.00;101317.28;5074538;28;19916;-64
2022/09/06 03:03:20;;;;;;;;;;;;;;;16.98;100.00;101331.44;5074798;28;19912;-64
2022/09/06 03:05:49;;;;;;;;;;;;;;;17.00;100.00;101326.09;5074496;28;19938;-64
2022/09/06 03:08:18;;;;;;;;;;;;;;;17.02;100.00;101325.16;5074442;28;19930;-64
2022/09/06 03:10:54;;;;;;;;;;;;;;;16.98;100.00;101331.44;5074807;28;19912;-64
2022/09/06 03:13:20;;;;;;;;;;;;;;;16.95;100.00;101328.81;5074605;28;19912;-64
2022/09/06 03:15:49;;;;;;;;;;;;;;;16.90;100.00;101325.31;5074688;28;19913;-64
2022/09/06 03:18:14;;;;;;;;;;;;;;;16.81;100.00;101320.09;5074619;28;19920;-64
2022/09/06 03:20:39;;;;;;;;;;;;;;;16.74;100.00;101325.50;5074308;28;19912;-64
2022/09/06 03:23:04;;;;;;;;;;;;;;;16.67;100.00;101323.84;5073859;28;19912;-64
2022/09/06 03:25:30;;;;;;;;;;;;;;;16.64;100.00;101323.84;5074193;28;20339;-64
2022/09/06 03:27:55;;;;;;;;;;;;;;;16.67;100.00;101333.63;5074311;28;19920;-63
2022/09/06 03:30:20;;;;;;;;;;;;;;;16.65;100.00;101332.75;5073813;28;19951;-64
2022/09/06 03:32:45;;;;;;;;;;;;;;;16.60;100.00;101327.50;5074056;28;19956;-63
2022/09/06 03:35:11;;;;;;;;;;;;;;;16.55;100.00;101332.00;5073972;28;20343;-64
2022/09/06 03:37:37;;;;;;;;;;;;;;;16.48;100.00;101330.31;5074149;28;19977;-64
2022/09/06 03:40:05;;;;;;;;;;;;;;;16.46;100.00;101327.66;5074289;28;19924;-64
2022/09/06 03:42:31;;;;;;;;;;;;;;;16.47;100.00;101326.75;5074038;28;19912;-63
2022/09/06 03:44:56;;;;;;;;;;;;;;;16.49;100.00;101319.59;5073780;28;20272;-64
2022/09/06 03:47:21;;;;;;;;;;;;;;;16.43;100.00;101322.38;5073801;28;20470;-64
2022/09/06 03:49:47;;;;;;;;;;;;;;;16.43;100.00;101325.03;5073630;28;19912;-64
2022/09/06 03:52:12;;;;;;;;;;;;;;;16.39;100.00;101324.16;5073601;28;19927;-64
2022/09/06 03:54:37;;;;;;;;;;;;;;;16.34;100.00;101335.81;5070028;28;19919;-64
2022/09/06 03:57:02;;;;;;;;;;;;;;;16.28;100.00;101328.78;5073490;28;20422;-64
2022/09/06 03:59:28;;;;;;;;;;;;;;;16.28;100.00;101336.78;5073585;28;19957;-64
2022/09/06 04:01:53;;;;;;;;;;;;;;;16.26;100.00;101337.69;5073868;28;19957;-64
2022/09/06 04:04:18;;;;;;;;;;;;;;;16.22;100.00;101336.81;5073470;28;19918;-64
2022/09/06 04:06:43;;;;;;;;;;;;;;;16.18;100.00;101341.31;5073183;28;19934;-63
2022/09/06 04:09:08;;;;;;;;;;;;;;;16.06;100.00;101336.09;5073608;28;19913;-64
2022/09/06 04:11:34;;;;;;;;;;;;;;;15.96;100.00;101332.69;5073456;28;19912;-64
2022/09/06 04:13:59;;;;;;;;;;;;;;;15.92;100.00;101352.25;5073389;28;19993;-64
2022/09/06 04:16:24;;;;;;;;;;;;;;;15.85;100.00;101353.22;5073396;28;20315;-63
2022/09/06 04:18:49;;;;;;;;;;;;;;;15.78;100.00;101356.81;5073426;28;20004;-63
2022/09/06 04:21:15;;;;;;;;;;;;;;;15.77;100.00;101355.94;5073314;28;20317;-64
2022/09/06 04:23:40;;;;;;;;;;;;;;;15.77;100.00;101363.03;5073143;28;19924;-64
2022/09/06 04:26:05;;;;;;;;;;;;;;;15.79;100.00;101358.59;5073024;28;19913;-64
2022/09/06 04:28:30;;;;;;;;;;;;;;;15.73;100.00;101363.94;5073273;28;19960;-64
2022/09/06 04:31:00;;;;;;;;;;;;;;;15.67;100.00;101373.78;5073132;28;19920;-63
2022/09/06 04:33:26;;;;;;;;;;;;;;;15.65;100.00;101367.59;5073050;28;19919;-63
2022/09/06 04:35:55;;;;;;;;;;;;;;;15.68;100.00;101358.66;5072404;28;20006;-64
2022/09/06 04:38:21;;;;;;;;;;;;;;;15.70;100.00;101359.53;5072859;28;19912;-64
2022/09/06 04:40:46;;;;;;;;;;;;;;;15.71;100.00;101355.09;5079629;28;19935;-64
2022/09/06 04:43:11;;;;;;;;;;;;;;;15.67;100.00;101357.78;5073062;28;19913;-63
2022/09/06 04:45:37;;;;;;;;;;;;;;;15.65;100.00;101356.94;5072907;28;19919;-63
2022/09/06 04:48:02;;;;;;;;;;;;;;;15.64;100.00;101357.81;5072910;28;19920;-64
2022/09/06 04:50:27;;;;;;;;;;;;;;;15.63;100.00;101364.03;5073233;28;19912;-64
2022/09/06 04:52:52;;;;;;;;;;;;;;;15.61;100.00;101365.84;5072676;28;20466;-64
2022/09/06 04:55:17;;;;;;;;;;;;;;;15.59;100.00;101364.94;5072991;28;19923;-64
2022/09/06 04:57:43;;;;;;;;;;;;;;;15.58;100.00;101359.63;5073270;28;19913;-64
2022/09/06 05:00:08;;;;;;;;;;;;;;;15.58;100.00;101359.63;5072598;28;19916;-64
2022/09/06 05:02:34;;;;;;;;;;;;;;;15.55;100.00;101360.53;5073195;28;19912;-64
2022/09/06 05:04:59;;;;;;;;;;;;;;;15.56;100.00;101359.66;5073207;28;20267;-64
2022/09/06 05:07:24;;;;;;;;;;;;;;;15.58;100.00;101362.28;5072609;28;19912;-64
2022/09/06 05:09:49;;;;;;;;;;;;;;;15.62;100.00;101354.25;5072735;28;19912;-64
2022/09/06 05:12:15;;;;;;;;;;;;;;;15.64;100.00;101351.56;5072864;28;19912;-64
2022/09/06 05:14:40;;;;;;;;;;;;;;;15.66;100.00;101347.13;5072647;28;19913;-64
2022/09/06 05:17:05;;;;;;;;;;;;;;;15.66;100.00;101353.34;5072901;28;19958;-64
2022/09/06 05:19:30;;;;;;;;;;;;;;;15.69;100.00;101352.44;5072533;28;19912;-64
2022/09/06 05:21:55;;;;;;;;;;;;;;;15.72;100.00;101354.19;5072403;28;19920;-63
2022/09/06 05:24:21;;;;;;;;;;;;;;;15.76;100.00;101361.28;5072707;28;19913;-63
2022/09/06 05:26:46;;;;;;;;;;;;;;;15.73;100.00;101361.28;5072448;28;19919;-64
2022/09/06 05:29:11;;;;;;;;;;;;;;;15.69;100.00;101363.09;5072392;28;19917;-64
2022/09/06 05:31:36;;;;;;;;;;;;;;;15.68;100.00;101364.88;5072559;28;20413;-63
2022/09/06 05:34:01;;;;;;;;;;;;;;;15.70;100.00;101367.53;5072494;28;20279;-63
2022/09/06 05:36:28;;;;;;;;;;;;;;;15.73;100.00;101370.16;5072661;28;19912;-64
2022/09/06 05:38:54;;;;;;;;;;;;;;;15.75;100.00;101370.16;5071540;28;19919;-64
2022/09/06 05:41:20;;;;;;;;;;;;;;;15.74;100.00;101371.94;5063942;28;19916;-64
2022/09/06 05:43:45;;;;;;;;;;;;;;;15.74;100.00;101360.38;5069850;28;19913;-65
2022/09/06 05:46:11;;;;;;;;;;;;;;;15.75;100.00;101372.81;5071546;28;20053;-63
2022/09/06 05:48:36;;;;;;;;;;;;;;;15.80;100.00;101371.03;5074033;28;19923;-63
2022/09/06 05:51:03;;;;;;;;;;;;;;;15.83;100.00;101374.56;5074474;28;20373;-64
2022/09/06 05:53:41;;;;;;;;;;;;;;;15.83;100.00;101371.88;5070450;28;19963;-64
2022/09/06 05:56:07;;;;;;;;;;;;;;;15.85;100.00;101371.88;5071050;28;19991;-65
2022/09/06 05:58:32;;;;;;;;;;;;;;;15.84;100.00;101368.34;5074072;28;20059;-64
2022/09/06 06:01:04;;;;;;;;;;;;;;;15.88;100.00;101371.84;5074182;28;20271;-63
2022/09/06 06:03:31;;;;;;;;;;;;;;;15.93;100.00;101367.38;5074166;28;20283;-63
2022/09/06 06:05:56;;;;;;;;;;;;;;;15.98;100.00;101364.66;5074426;28;19958;-63
2022/09/06 06:08:21;;;;;;;;;;;;;;;16.04;100.00;101368.13;5073500;28;19947;-63
2022/09/06 06:10:46;;;;;;;;;;;;;;;16.10;100.00;101369.84;5063352;28;20434;-64
2022/09/06 06:13:11;;;;;;;;;;;;;;;16.12;100.00;101378.72;5070658;28;19927;-64
2022/09/06 06:15:37;;;;;;;;;;;;;;;16.18;100.00;101367.13;5073851;28;19912;-65
2022/09/06 06:18:02;;;;;;;;;;;;;;;16.31;100.00;101370.50;5073687;28;19920;-64
2022/09/06 06:20:27;;;;;;;;;;;;;;;16.35;100.00;101369.56;5073159;28;20351;-64
2022/09/06 06:22:52;;;;;;;;;;;;;;;16.39;100.00;101372.19;5074240;28;19916;-64
2022/09/06 06:25:21;;;;;;;;;;;;;;;16.51;100.00;101371.19;5073480;28;20378;-63
2022/09/06 06:27:47;;;;;;;;;;;;;;;16.57;100.00;101370.19;5073335;28;19908;-64
2022/09/06 06:30:12;;;;;;;;;;;;;;;16.63;100.00;101363.91;5073054;28;20282;-64
2022/09/06 06:32:38;;;;;;;;;;;;;;;16.69;100.00;101363.84;5073348;28;19966;-63
2022/09/06 06:35:04;;;;;;;;;;;;;;;16.76;100.00;101353.97;5073771;28;19913;-63
2022/09/06 06:37:31;;;;;;;;;;;;;;;16.85;100.00;101348.53;5073256;28;19922;-63
2022/09/06 06:39:57;;;;;;;;;;;;;;;16.94;100.00;101344.88;5073252;28;19916;-63
2022/09/06 06:42:23;;;;;;;;;;;;;;;16.99;100.00;101351.88;5073526;28;19916;-63
2022/09/06 06:44:48;;;;;;;;;;;;;;;17.09;100.00;101352.66;5073248;28;19961;-64
2022/09/06 06:47:13;;;;;;;;;;;;;;;17.17;100.00;101352.53;5071761;28;20263;-63
2022/09/06 06:49:38;;;;;;;;;;;;;;;17.25;100.00;101353.31;5073805;28;19917;-63
2022/09/06 06:52:04;;;;;;;;;;;;;;;17.29;100.00;101355.03;5072983;28;20267;-64
2022/09/06 06:54:29;;;;;;;;;;;;;;;17.35;100.00;101354.91;5073100;28;19916;-64
2022/09/06 06:56:54;;;;;;;;;;;;;;;17.41;100.00;101357.50;5072471;28;20363;-65
2022/09/06 06:59:19;;;;;;;;;;;;;;;17.49;100.00;101353.81;5072338;28;20340;-64
2022/09/06 07:01:44;;;;;;;;;;;;;;;17.56;100.00;101353.72;5073129;28;19919;-63
2022/09/06 07:04:11;;;;;;;;;;;;;;;17.66;100.00;101357.09;5073011;28;19912;-65
2022/09/06 07:06:53;;;;;;;;;;;;;;;17.76;100.00;101356.00;5072836;28;19962;-64
2022/09/06 07:09:18;;;;;;;;;;;;;;;17.83;100.00;101351.44;5070240;28;19913;-64
2022/09/06 07:11:44;;;;;;;;;;;;;;;17.86;100.00;101351.41;5073078;28;20313;-64
2022/09/06 07:14:09;;;;;;;;;;;;;;;17.96;100.00;101346.81;5073108;28;19912;-63
2022/09/06 07:16:35;;;;;;;;;;;;;;;18.03;100.00;101343.09;5072492;28;20305;-65
2022/09/06 07:19:00;;;;;;;;;;;;;;;18.12;100.00;101348.28;5072236;28;19916;-65
2022/09/06 07:21:25;;;;;;;;;;;;;;;18.19;100.00;101350.81;5072372;28;19971;-64
2022/09/06 07:23:54;;;;;;;;;;;;;;;18.28;100.00;101343.50;5072451;28;20011;-63
2022/09/06 07:26:21;;;;;;;;;;;;;;;18.35;100.00;101354.06;5072511;28;19927;-62
2022/09/06 07:28:46;;;;;;;;;;;;;;;18.44;100.00;101354.78;5072007;28;19928;-65
2022/09/06 07:31:12;;;;;;;;;;;;;;;18.53;100.00;101352.84;5072381;28;19916;-64
2022/09/06 07:33:38;;;;;;;;;;;;;;;18.60;100.00;101349.13;5072391;28;19916;-64
2022/09/06 07:36:04;;;;;;;;;;;;;;;18.65;100.00;101347.22;5072093;28;19947;-64
2022/09/06 07:38:29;;;;;;;;;;;;;;;18.72;100.00;101347.97;5072009;28;19912;-64
2022/09/06 07:40:56;;;;;;;;;;;;;;;18.79;100.00;101346.94;5072199;28;19917;-64
2022/09/06 07:43:21;;;;;;;;;;;;;;;18.87;100.00;101355.69;5072049;28;20367;-63
2022/09/06 07:45:46;;;;;;;;;;;;;;;19.01;100.00;101355.41;5072009;28;19919;-63
2022/09/06 07:48:12;;;;;;;;;;;;;;;19.11;100.00;101359.63;5071758;28;19927;-63
2022/09/06 07:50:37;;;;;;;;;;;;;;;19.24;100.00;101362.03;5071865;28;19913;-62
2022/09/06 07:53:05;;;;;;;;;;;;;;;19.38;100.00;101364.38;5072301;28;19959;-62
2022/09/06 07:55:30;;;;;;;;;;;;;;;19.52;100.00;101356.88;5072165;28;19913;-62
2022/09/06 07:57:55;;;;;;;;;;;;;;;19.71;100.00;101351.91;5080377;28;20322;-63
2022/09/06 08:00:21;;;;;;;;;;;;;;;19.90;100.00;101346.13;5071929;28;19912;-62
2022/09/06 08:02:46;;;;;;;;;;;;;;;20.07;100.00;101340.31;5073219;28;19920;-63
2022/09/06 08:05:11;;;;;;;;;;;;;;;20.14;100.00;101340.09;5073528;28;19912;-63
2022/09/06 08:07:36;;;;;;;;;;;;;;;20.20;100.00;101334.53;5073548;28;19924;-63
2022/09/06 08:10:02;;;;;;;;;;;;;;;20.33;100.00;101337.75;5073238;28;20399;-62
2022/09/06 08:12:28;;;;;;;;;;;;;;;20.50;100.00;101339.06;5072256;28;19909;-63
2022/09/06 08:14:53;;;;;;;;;;;;;;;20.72;100.00;101337.56;5073639;28;19916;-63
2022/09/06 08:17:18;;;;;;;;;;;;;;;20.89;100.00;101331.63;5073110;28;20286;-63
2022/09/06 08:19:44;;;;;;;;;;;;;;;20.95;100.00;101337.75;5073357;28;19912;-62
2022/09/06 08:22:09;;;;;;;;;;;;;;;21.05;100.00;101339.22;5073238;28;19939;-63
2022/09/06 08:24:34;;;;;;;;;;;;;;;21.21;100.00;101345.88;5073107;28;19912;-64
2022/09/06 08:27:00;;;;;;;;;;;;;;;21.46;100.00;101344.19;5072934;28;20011;-63
2022/09/06 08:29:26;;;;;;;;;;;;;;;21.65;100.00;101347.19;5073047;28;19921;-64
2022/09/06 08:31:51;;;;;;;;;;;;;;;21.71;100.00;101350.56;5073052;28;19912;-63
2022/09/06 08:34:16;;;;;;;;;;;;;;;21.63;100.00;101357.13;5073325;28;19912;-63
2022/09/06 08:36:42;;;;;;;;;;;;;;;21.47;100.00;101364.78;5072987;28;19923;-64
2022/09/06 08:39:08;;;;;;;;;;;;;;;21.49;100.00;101346.78;5072985;28;20287;-64
2022/09/06 08:41:34;;;;;;;;;;;;;;;21.64;100.00;101340.03;5073077;28;19920;-63
2022/09/06 08:44:02;;;;;;;;;;;;;;;21.83;100.00;101349.25;5072908;28;20282;-64
2022/09/06 08:46:38;;;;;;;;;;;;;;;21.93;100.00;101342.59;5071565;28;19992;-64
2022/09/06 08:49:04;;;;;;;;;;;;;;;22.30;100.00;101335.00;5072878;28;19923;-64
2022/09/06 08:51:32;;;;;;;;;;;;;;;23.05;100.00;101341.16;5073234;28;20295;-63
2022/09/06 08:53:59;;;;;;;;;;;;;;;23.72;100.00;101352.81;5072924;28;19962;-64
2022/09/06 08:56:30;;;;;;;;;;;;;;;24.00;100.00;101352.56;5072727;28;19912;-64
2022/09/06 08:59:05;;;;;;;;;;;;;;;24.25;100.00;101340.66;5073189;28;19919;-64
2022/09/06 09:01:56;;;;;;;;;;;;;;;24.64;100.00;101346.06;5072636;28;20412;-64
2022/09/06 09:04:24;;;;;;;;;;;;;;;24.51;100.00;101347.56;5065575;28;19919;-64
2022/09/06 09:06:52;;;;;;;;;;;;;;;24.65;99.43;101347.81;5073000;28;19912;-64
2022/09/06 09:09:17;;;;;;;;;;;;;;;24.75;100.00;101350.97;5068529;28;19923;-64
2022/09/06 09:11:46;;;;;;;;;;;;;;;24.99;100.00;101340.81;5072856;28;19917;-64
2022/09/06 09:14:14;;;;;;;;;;;;;;;25.63;100.00;101341.31;5072519;28;20430;-64
2022/09/06 09:16:40;;;;;;;;;;;;;;;26.53;98.64;101334.78;5072586;28;19931;-64
2022/09/06 09:19:05;;;;;;;;;;;;;;;26.77;98.31;101334.38;5072713;28;20336;-64
2022/09/06 09:21:32;;;;;;;;;;;;;;;26.50;96.91;101331.34;5074424;28;19954;-64
2022/09/06 09:24:00;;;;;;;;;;;;;;;26.38;91.86;101336.47;5076256;28;19912;-64
2022/09/06 09:26:27;;;;;;;;;;;;;;;26.38;92.11;101336.47;5076637;28;20393;-64
2022/09/06 09:29:02;;;;;;;;;;;;;;;26.47;92.93;101329.66;5073225;28;19923;-64
2022/09/06 09:31:48;;;;;;;;;;;;;;;25.89;90.72;101344.47;5071221;28;19920;-64
2022/09/06 09:34:25;;;;;;;;;;;;;;;25.29;93.48;101340.25;5072775;28;20011;-65
2022/09/06 09:37:08;;;;;;;;;;;;;;;25.13;94.51;101334.72;5072596;28;20408;-64
2022/09/06 09:39:36;;;;;;;;;;;;;;;25.23;99.64;101337.84;5073312;28;19919;-64
2022/09/06 09:42:02;;;;;;;;;;;;;;;25.36;95.43;101339.03;5073499;28;19962;-66
2022/09/06 09:44:28;;;;;;;;;;;;;;;25.97;94.67;101342.25;5072989;28;19916;-65
2022/09/06 09:46:53;;;;;;;;;;;;;;;26.72;93.03;101331.94;5071672;28;20369;-65
2022/09/06 09:49:23;;;;;;;;;;;;;;;27.85;85.75;101335.41;5073220;28;19920;-67
2022/09/06 09:52:09;;;;;;;;;;;;;;;28.95;81.79;101333.06;5072395;28;20330;-63
2022/09/06 09:54:36;;;;;;;;;;;;;;;29.81;81.89;101331.84;5070896;28;19915;-67
2022/09/06 09:57:06;;;;;;;;;;;;;;;30.29;80.67;101335.81;5073724;28;19938;-64
2022/09/06 09:59:36;;;;;;;;;;;;;;;31.00;68.35;101325.28;5074343;28;19916;-65
2022/09/06 10:02:16;;;;;;;;;;;;;;;31.50;50.60;101331.50;5073903;28;20359;-65
2022/09/06 10:04:48;;;;;;;;;;;;;;;31.93;54.53;101330.91;5072212;28;19913;-65
2022/09/06 10:07:18;;;;;;;;;;;;;;;32.75;53.20;101331.75;5072204;28;20011;-64
2022/09/06 10:09:47;;;;;;;;;;;;;;;33.49;48.64;101336.56;5072207;28;20062;-64
2022/09/06 10:12:17;;;;;;;;;;;;;;;32.77;44.46;101351.66;5071403;28;19919;-64
2022/09/06 10:14:47;;;;;;;;;;;;;;;31.84;47.36;101356.22;5073900;28;19920;-64
2022/09/06 10:17:20;;;;;;;;;;;;;;;31.66;45.42;101354.91;5074072;28;19916;-64
2022/09/06 10:19:46;;;;;;;;;;;;;;;31.72;45.45;101357.19;5072025;28;19923;-63
2022/09/06 10:22:19;;;;;;;;;;;;;;;31.60;46.30;101354.41;5073644;28;20295;-65
2022/09/06 10:24:53;;;;;;;;;;;;;;;31.79;47.99;101344.78;5073000;28;20367;-64
2022/09/06 10:27:22;;;;;;;;;;;;;;;31.62;46.01;101359.75;5071935;28;20285;-64
2022/09/06 10:29:54;;;;;;;;;;;;;;;31.88;45.34;101349.53;5071413;28;20343;-64
2022/09/06 10:32:35;;;;;;;;;;;;;;;31.38;47.80;101349.69;5070805;28;20378;-64
2022/09/06 10:35:02;;;;;;;;;;;;;;;31.70;45.84;101350.97;5072823;28;19915;-64
2022/09/06 10:37:36;;;;;;;;;;;;;;;31.82;45.72;101347.28;5072211;28;20409;-64
2022/09/06 10:40:05;;;;;;;;;;;;;;;32.21;43.83;101342.41;5071355;28;19908;-64
2022/09/06 10:42:36;;;;;;;;;;;;;;;33.05;42.48;101343.91;5071414;28;19920;-64
2022/09/06 10:45:01;;;;;;;;;;;;;;;33.82;41.90;101343.78;5071316;28;19912;-63
2022/09/06 10:47:33;;;;;;;;;;;;;;;33.25;39.81;101336.81;5074871;28;20350;-64
2022/09/06 10:50:00;;;;;;;;;;;;;;;33.47;41.22;101328.47;5074938;28;19913;-64
2022/09/06 10:52:30;;;;;;;;;;;;;;;33.56;39.49;101337.78;5075301;28;20003;-64
2022/09/06 10:55:01;;;;;;;;;;;;;;;33.87;38.59;101343.38;5071403;28;20027;-65
2022/09/06 10:57:32;;;;;;;;;;;;;;;33.75;35.95;101328.88;5074005;28;20367;-64
2022/09/06 11:00:01;;;;;;;;;;;;;;;32.66;37.81;101328.75;5074414;28;19999;-65
2022/09/06 11:02:37;;;;;;;;;;;;;;;32.09;39.18;101337.91;5073541;28;19918;-66
2022/09/06 11:05:07;;;;;;;;;;;;;;;33.02;39.58;101337.66;5071708;28;19916;-66
2022/09/06 11:07:43;;;;;;;;;;;;;;;34.10;36.73;101340.50;5073516;28;20264;-65
2022/09/06 11:10:14;;;;;;;;;;;;;;;33.80;36.40;101339.41;5074257;28;19923;-65
2022/09/06 11:13:02;;;;;;;;;;;;;;;33.13;39.01;101338.63;5073381;28;20010;-65
2022/09/06 11:15:30;;;;;;;;;;;;;;;34.74;35.71;101350.34;5070785;28;20371;-65
2022/09/06 11:18:01;;;;;;;;;;;;;;;35.17;33.88;101349.19;5068705;28;19963;-64
2022/09/06 11:20:47;;;;;;;;;;;;;;;35.50;33.53;101357.19;5068099;28;19923;-65
2022/09/06 11:23:30;;;;;;;;;;;;;;;35.91;33.06;101366.16;5070609;28;19918;-65
2022/09/06 11:26:04;;;;;;;;;;;;;;;36.39;33.45;101362.47;5073499;28;19920;-65
2022/09/06 11:28:34;;;;;;;;;;;;;;;36.41;32.64;101365.09;5069624;28;20008;-65
2022/09/06 11:31:00;;;;;;;;;;;;;;;36.42;32.95;101366.78;5073151;28;19922;-65
2022/09/06 11:33:34;;;;;;;;;;;;;;;36.75;32.67;101372.75;5072488;28;19924;-65
2022/09/06 11:36:26;;;;;;;;;;;;;;;36.80;30.98;101348.41;5072564;28;19916;-65
2022/09/06 11:38:56;;;;;;;;;;;;;;;37.09;31.40;101359.25;5071535;28;19916;-64
2022/09/06 11:41:26;;;;;;;;;;;;;;;36.76;31.11;101360.72;5073196;28;19948;-64
2022/09/06 11:43:51;;;;;;;;;;;;;;;37.23;30.96;101357.84;5073432;28;19920;-64
2022/09/06 11:46:32;;;;;;;;;;;;;;;37.50;30.07;101354.19;5073684;28;19916;-64
2022/09/06 11:49:16;;;;;;;;;;;;;;;36.93;30.38;101359.94;5073731;28;20428;-65
2022/09/06 11:51:42;;;;;;;;;;;;;;;36.94;30.49;101347.03;5071410;28;20291;-65
2022/09/06 11:54:14;;;;;;;;;;;;;;;38.27;28.42;101352.75;5073996;28;19908;-64
2022/09/06 11:56:45;;;;;;;;;;;;;;;39.11;26.94;101348.28;5073904;28;20294;-65
2022/09/06 11:59:20;;;;;;;;;;;;;;;39.73;26.67;101349.81;5073462;28;19988;-65
2022/09/06 12:01:54;;;;;;;;;;;;;;;39.59;25.92;101340.28;5073791;28;19919;-65
2022/09/06 12:04:20;;;;;;;;;;;;;;;39.82;26.97;101345.97;5073457;28;20402;-65
2022/09/06 12:07:04;;;;;;;;;;;;;;;39.91;26.74;101341.31;5073596;28;20010;-65
2022/09/06 12:09:33;;;;;;;;;;;;;;;38.92;27.56;101337.53;5069503;28;19912;-65
2022/09/06 12:12:00;;;;;;;;;;;;;;;39.29;26.09;101341.78;5069585;28;19919;-64
2022/09/06 12:14:33;;;;;;;;;;;;;;;39.01;26.32;101334.59;5071678;28;19943;-65
2022/09/06 12:16:59;;;;;;;;;;;;;;;39.92;26.42;101326.44;5069059;28;19916;-65
2022/09/06 12:19:39;;;;;;;;;;;;;;;40.65;22.16;101334.75;5071453;28;19935;-65
2022/09/06 12:22:24;;;;;;;;;;;;;;;40.39;23.52;101331.19;5070529;28;19919;-65
2022/09/06 12:24:51;;;;;;;;;;;;;;;40.65;22.41;101323.69;5071150;28;19912;-66
2022/09/06 12:27:17;;;;;;;;;;;;;;;40.59;23.28;101334.44;5070846;28;20416;-65
2022/09/06 12:29:50;;;;;;;;;;;;;;;41.08;22.71;101327.78;5071064;28;20952;-65
2022/09/06 12:32:19;;;;;;;;;;;;;;;41.93;20.68;101327.84;5069590;28;19966;-65
2022/09/06 12:34:45;;;;;;;;;;;;;;;42.18;21.80;101328.47;5072498;28;20012;-65